Impacts TAF Board INFO
FOR SITUATIONAL AWARENESS. NOT TO BE USED FOR FLIGHT PLANNING PURPOSES.
IDs:

KMIA - Miami Intl, FL, US

Issued at 1536 UTC 19 Nov 2017
Updated at 1549 UTC 19 Nov 2017
Potential Impact None Slight Moderate High
Time1453Z 19/16Z 19/17Z 19/18Z 19/19Z 19/20Z 19/21Z 19/22Z 19/23Z 20/00Z 20/01Z 20/02Z 20/03Z 20/04Z>>
Type OBS PRVL PRVL PRVL PRVL PRVL PRVL PRVL PRVL PRVL PRVL PRVL PRVL PRVL
VIS 10 >6 >6 >6 >6 >6 >6 >6 >6 >6 >6 >6 >6 >6
CIG -- -- -- -- -- -- -- -- -- -- -- -- -- --
Cover CLR SKC SKC SKC SKC SKC SKC SKC SKC SKC SCT SCT SCT SCT
FltCat VFR VFR VFR VFR VFR VFR VFR VFR VFR VFR VFR VFR VFR VFR
WX -- -- -- -- -- -- -- -- -- -- -- -- -- --
WDir 280 280 280 280 280 280 280 280 280 280 VRB VRB VRB VRB
WSpd 4 6 6 6 6 6 6 6 6 6 3 3 3 3
WGst -- -- -- -- -- -- -- -- -- -- -- -- -- --

Raw TAF
KMIA 191536Z 1916/2018 28006KT P6SM SKC
  FM200100 VRB03KT P6SM SCT020 SCT040
  FM201000 02010KT P6SM SCT020 BKN040
  FM201400 06012KT P6SM SCT035


Raw METAR
KMIA 191453Z 28004KT 10SM CLR 25/17 A2999 RMK AO2 SLP155 T02500167 50008
KMIA 191353Z 36003KT 10SM CLR 24/16 A2999 RMK AO2 SLP157 T02440161
KMIA 191253Z 00000KT 10SM FEW035 22/17 A2999 RMK AO2 SLP154 T02170172

METAR Board
Radar Display
Forecast Discussion

FOR SITUATIONAL AWARENESS. NOT TO BE USED FOR FLIGHT PLANNING PURPOSES.